sensor_id;sensor_type;location;lat;lon;timestamp;pressure;altitude;pressure_sealevel;temperature;humidity
71903;BME280;59778;50.310;18.780;2022-12-08T00:04:45;98350.28;;;1.71;93.70
71903;BME280;59778;50.310;18.780;2022-12-08T00:20:25;98359.41;;;1.78;93.03
71903;BME280;59778;50.310;18.780;2022-12-08T00:35:46;98357.66;;;1.86;92.98
71903;BME280;59778;50.310;18.780;2022-12-08T00:51:07;98377.31;;;1.77;93.61
71903;BME280;59778;50.310;18.780;2022-12-08T01:06:28;98391.78;;;1.84;93.87
71903;BME280;59778;50.310;18.780;2022-12-08T01:21:50;98395.75;;;1.80;94.18
71903;BME280;59778;50.310;18.780;2022-12-08T01:37:11;98389.66;;;1.88;93.64
71903;BME280;59778;50.310;18.780;2022-12-08T01:52:38;98385.44;;;1.85;93.30
71903;BME280;59778;50.310;18.780;2022-12-08T02:08:03;98377.97;;;1.89;93.06
71903;BME280;59778;50.310;18.780;2022-12-08T02:24:12;98372.88;;;1.86;93.19
71903;BME280;59778;50.310;18.780;2022-12-08T03:26:24;98380.59;;;1.71;93.58
71903;BME280;59778;50.310;18.780;2022-12-08T03:41:49;98368.19;;;1.70;93.15
71903;BME280;59778;50.310;18.780;2022-12-08T03:57:11;98373.34;;;1.81;93.09
71903;BME280;59778;50.310;18.780;2022-12-08T04:12:32;98367.75;;;1.75;92.47
71903;BME280;59778;50.310;18.780;2022-12-08T04:27:53;98369.75;;;1.73;92.53
71903;BME280;59778;50.310;18.780;2022-12-08T04:43:16;98367.44;;;1.78;92.12
71903;BME280;59778;50.310;18.780;2022-12-08T04:58:38;98357.88;;;1.75;92.26
71903;BME280;59778;50.310;18.780;2022-12-08T05:14:00;98354.25;;;1.67;92.81
71903;BME280;59778;50.310;18.780;2022-12-08T05:29:22;98342.56;;;1.68;92.90
71903;BME280;59778;50.310;18.780;2022-12-08T05:44:43;98354.34;;;1.75;91.71
71903;BME280;59778;50.310;18.780;2022-12-08T06:00:06;98344.81;;;1.72;92.01
71903;BME280;59778;50.310;18.780;2022-12-08T06:15:28;98358.19;;;1.72;91.74
71903;BME280;59778;50.310;18.780;2022-12-08T06:30:49;98378.53;;;1.83;91.42
71903;BME280;59778;50.310;18.780;2022-12-08T06:46:13;98392.47;;;1.86;90.55
71903;BME280;59778;50.310;18.780;2022-12-08T07:01:35;98395.31;;;1.85;90.17
71903;BME280;59778;50.310;18.780;2022-12-08T07:16:56;98406.88;;;1.85;90.08
71903;BME280;59778;50.310;18.780;2022-12-08T07:32:17;98389.88;;;1.95;89.88
71903;BME280;59778;50.310;18.780;2022-12-08T07:47:39;98403.53;;;2.01;88.91
71903;BME280;59778;50.310;18.780;2022-12-08T08:03:00;98398.00;;;2.03;89.78
71903;BME280;59778;50.310;18.780;2022-12-08T08:18:22;98396.75;;;2.24;88.99
71903;BME280;59778;50.310;18.780;2022-12-08T08:33:43;98385.69;;;2.63;85.97
71903;BME280;59778;50.310;18.780;2022-12-08T08:49:05;98380.28;;;2.80;85.71
71903;BME280;59778;50.310;18.780;2022-12-08T09:04:26;98391.59;;;3.10;83.42
71903;BME280;59778;50.310;18.780;2022-12-08T09:19:48;98376.56;;;3.51;81.64
71903;BME280;59778;50.310;18.780;2022-12-08T09:35:09;98356.41;;;3.97;79.06
71903;BME280;59778;50.310;18.780;2022-12-08T09:50:40;98334.47;;;4.09;77.96
71903;BME280;59778;50.310;18.780;2022-12-08T10:21:40;98322.69;;;4.02;75.05
71903;BME280;59778;50.310;18.780;2022-12-08T10:37:08;98313.97;;;4.16;76.07
71903;BME280;59778;50.310;18.780;2022-12-08T10:52:30;98302.72;;;4.05;74.98
71903;BME280;59778;50.310;18.780;2022-12-08T11:07:52;98305.81;;;3.76;75.59
71903;BME280;59778;50.310;18.780;2022-12-08T11:23:23;98302.84;;;3.79;78.51
71903;BME280;59778;50.310;18.780;2022-12-08T11:38:47;98294.28;;;3.92;78.76
71903;BME280;59778;50.310;18.780;2022-12-08T12:25:59;98279.91;;;3.43;82.22
71903;BME280;59778;50.310;18.780;2022-12-08T12:41:24;98289.22;;;2.97;87.44
71903;BME280;59778;50.310;18.780;2022-12-08T13:12:20;98286.03;;;2.42;94.45
71903;BME280;59778;50.310;18.780;2022-12-08T13:27:51;98278.88;;;2.24;96.21
71903;BME280;59778;50.310;18.780;2022-12-08T13:43:29;98284.16;;;2.16;96.94
71903;BME280;59778;50.310;18.780;2022-12-08T13:59:09;98287.16;;;2.13;98.62
71903;BME280;59778;50.310;18.780;2022-12-08T14:14:45;98283.78;;;2.11;99.27
71903;BME280;59778;50.310;18.780;2022-12-08T14:30:18;98289.75;;;2.05;99.60
71903;BME280;59778;50.310;18.780;2022-12-08T15:01:01;98288.44;;;1.74;100.00
71903;BME280;59778;50.310;18.780;2022-12-08T15:16:29;98284.00;;;1.82;100.00
71903;BME280;59778;50.310;18.780;2022-12-08T15:31:54;98277.56;;;1.75;100.00
71903;BME280;59778;50.310;18.780;2022-12-08T15:47:21;98254.41;;;1.84;100.00
71903;BME280;59778;50.310;18.780;2022-12-08T16:02:43;98244.88;;;1.81;100.00
71903;BME280;59778;50.310;18.780;2022-12-08T16:18:15;98248.16;;;1.93;100.00
71903;BME280;59778;50.310;18.780;2022-12-08T16:33:36;98241.63;;;1.96;100.00
71903;BME280;59778;50.310;18.780;2022-12-08T16:48:59;98237.00;;;2.06;100.00
71903;BME280;59778;50.310;18.780;2022-12-08T17:04:20;98238.56;;;2.08;100.00
71903;BME280;59778;50.310;18.780;2022-12-08T17:19:41;98240.22;;;2.27;100.00
71903;BME280;59778;50.310;18.780;2022-12-08T17:35:03;98241.44;;;2.32;100.00
71903;BME280;59778;50.310;18.780;2022-12-08T17:50:24;98245.13;;;2.14;100.00
71903;BME280;59778;50.310;18.780;2022-12-08T18:05:45;98239.88;;;2.30;100.00
71903;BME280;59778;50.310;18.780;2022-12-08T18:21:07;98227.53;;;2.11;100.00
71903;BME280;59778;50.310;18.780;2022-12-08T18:36:29;98229.94;;;2.40;100.00
71903;BME280;59778;50.310;18.780;2022-12-08T18:51:50;98209.50;;;2.73;98.31
71903;BME280;59778;50.310;18.780;2022-12-08T19:07:12;98212.44;;;2.88;97.13
71903;BME280;59778;50.310;18.780;2022-12-08T19:22:34;98224.16;;;2.87;97.36
71903;BME280;59778;50.310;18.780;2022-12-08T19:37:55;98230.66;;;2.76;97.55
71903;BME280;59778;50.310;18.780;2022-12-08T19:53:18;98215.19;;;2.70;98.43
71903;BME280;59778;50.310;18.780;2022-12-08T20:08:43;98211.22;;;2.82;98.38
71903;BME280;59778;50.310;18.780;2022-12-08T20:24:16;98202.66;;;2.78;98.03
71903;BME280;59778;50.310;18.780;2022-12-08T20:39:38;98209.53;;;2.47;99.43
71903;BME280;59778;50.310;18.780;2022-12-08T20:54:59;98203.13;;;2.40;100.00
71903;BME280;59778;50.310;18.780;2022-12-08T21:10:20;98200.00;;;2.45;100.00
71903;BME280;59778;50.310;18.780;2022-12-08T21:25:44;98201.25;;;2.32;100.00
71903;BME280;59778;50.310;18.780;2022-12-08T21:41:14;98197.50;;;2.25;100.00
71903;BME280;59778;50.310;18.780;2022-12-08T21:56:36;98185.59;;;2.20;100.00
71903;BME280;59778;50.310;18.780;2022-12-08T22:11:57;98184.78;;;2.02;100.00
71903;BME280;59778;50.310;18.780;2022-12-08T22:27:21;98181.38;;;2.17;100.00
71903;BME280;59778;50.310;18.780;2022-12-08T22:42:43;98177.59;;;2.28;99.19
71903;BME280;59778;50.310;18.780;2022-12-08T22:58:04;98179.78;;;2.58;97.78
71903;BME280;59778;50.310;18.780;2022-12-08T23:13:25;98178.00;;;2.67;97.50
71903;BME280;59778;50.310;18.780;2022-12-08T23:28:47;98164.72;;;2.65;96.93
71903;BME280;59778;50.310;18.780;2022-12-08T23:44:08;98152.97;;;2.58;96.43
71903;BME280;59778;50.310;18.780;2022-12-08T23:59:31;98158.28;;;2.50;96.74
